createdAt,value
2019-02-02T00:03:44.967Z,41.50
2019-02-02T00:07:46.455Z,41.90
2019-02-02T00:11:47.809Z,41.63
2019-02-02T00:15:51.026Z,38.85
2019-02-02T00:19:52.161Z,41.50
2019-02-02T00:23:53.623Z,46.00
2019-02-02T00:27:55.847Z,41.13
2019-02-02T00:31:57.435Z,42.45
2019-02-02T00:36:01.269Z,37.25
2019-02-02T00:40:06.195Z,37.13
2019-02-02T00:44:07.564Z,38.83
2019-02-02T00:48:08.799Z,40.17
2019-02-02T00:52:09.988Z,35.73
2019-02-02T00:56:11.430Z,38.63
2019-02-02T01:00:18.399Z,36.42
2019-02-02T01:04:19.650Z,34.45
2019-02-02T01:08:21.045Z,34.33
2019-02-02T01:12:22.311Z,40.15
2019-02-02T01:16:23.663Z,40.23
2019-02-02T01:20:25.117Z,37.03
2019-02-02T01:24:26.368Z,37.80
2019-02-02T01:28:27.528Z,39.50
2019-02-02T01:32:28.807Z,39.00
2019-02-02T01:36:29.920Z,39.88
2019-02-02T01:40:31.083Z,41.18
2019-02-02T01:44:32.367Z,43.33
2019-02-02T01:48:33.631Z,38.28
2019-02-02T01:52:34.970Z,44.75
2019-02-02T01:56:36.185Z,44.33
2019-02-02T02:00:39.361Z,43.40
2019-02-02T02:04:40.514Z,42.30
2019-02-02T02:08:42.018Z,47.60
2019-02-02T02:12:43.306Z,51.65
2019-02-02T02:16:44.458Z,43.90
2019-02-02T02:20:45.749Z,45.73
2019-02-02T02:24:47.317Z,46.45
2019-02-02T02:28:48.670Z,52.98
2019-02-02T02:32:50.779Z,53.63
2019-02-02T02:36:51.998Z,54.03
2019-02-02T02:40:53.301Z,53.15
2019-02-02T02:44:55.668Z,53.52
2019-02-02T02:48:56.936Z,53.05
2019-02-02T02:52:58.182Z,49.70
2019-02-02T02:56:59.388Z,50.55
2019-02-02T03:01:02.456Z,49.65
2019-02-02T03:05:06.456Z,54.23
2019-02-02T03:09:08.953Z,51.92
2019-02-02T03:13:10.273Z,50.83
2019-02-02T03:17:11.452Z,49.13
2019-02-02T03:21:12.716Z,48.52
2019-02-02T03:25:24.521Z,46.20
2019-02-02T03:29:25.654Z,42.62
2019-02-02T03:33:26.898Z,46.77
2019-02-02T03:37:28.136Z,46.37
2019-02-02T03:41:29.330Z,45.80
2019-02-02T03:45:30.560Z,42.08
2019-02-02T03:49:31.891Z,48.15
2019-02-02T03:53:33.087Z,48.17
2019-02-02T03:57:34.240Z,45.98
2019-02-02T04:01:35.789Z,45.60
2019-02-02T04:05:36.962Z,43.70
2019-02-02T04:09:38.094Z,43.48
2019-02-02T04:13:39.246Z,43.15
2019-02-02T04:17:40.390Z,42.25
2019-02-02T04:21:41.592Z,48.05
2019-02-02T04:25:42.755Z,46.35
2019-02-02T04:29:43.859Z,42.05
2019-02-02T04:33:44.978Z,40.78
2019-02-02T04:37:46.195Z,43.73
2019-02-02T04:41:47.451Z,43.85
2019-02-02T04:45:48.635Z,42.43
2019-02-02T04:49:49.941Z,42.70
2019-02-02T04:53:51.218Z,41.37
2019-02-02T04:57:52.311Z,40.60
2019-02-02T05:01:53.711Z,43.08
2019-02-02T05:05:54.926Z,47.67
2019-02-02T05:09:56.061Z,43.98
2019-02-02T05:13:57.375Z,45.17
2019-02-02T05:17:58.597Z,41.58
2019-02-02T05:21:59.849Z,41.48
2019-02-02T05:26:01.842Z,38.80
2019-02-02T05:30:18.348Z,41.18
2019-02-02T05:34:19.831Z,44.03
2019-02-02T05:38:21.037Z,41.13
2019-02-02T05:42:22.279Z,43.98
2019-02-02T05:46:23.525Z,41.50
2019-02-02T05:50:24.936Z,48.17
2019-02-02T05:54:26.215Z,44.53
2019-02-02T05:58:27.518Z,45.88
2019-02-02T06:02:28.806Z,47.62
2019-02-02T06:06:30.104Z,48.80
2019-02-02T06:10:31.490Z,47.60
2019-02-02T06:14:32.847Z,46.55
2019-02-02T06:18:34.001Z,47.10
2019-02-02T06:22:35.134Z,43.08
2019-02-02T06:26:36.852Z,44.13
2019-02-02T06:30:39.133Z,49.20
2019-02-02T06:34:40.413Z,46.40
2019-02-02T06:38:41.858Z,42.40
2019-02-02T06:42:43.188Z,42.60
2019-02-02T06:46:44.385Z,39.42
2019-02-02T06:50:45.492Z,44.70
2019-02-02T06:54:46.757Z,39.92
2019-02-02T06:58:48.005Z,43.98
2019-02-02T07:02:49.915Z,45.00
2019-02-02T07:06:53.226Z,41.55
2019-02-02T07:10:54.283Z,42.38
2019-02-02T07:14:56.806Z,41.08
2019-02-02T07:18:57.919Z,41.70
2019-02-02T07:22:59.077Z,44.40
2019-02-02T07:27:00.208Z,40.85
2019-02-02T07:31:01.498Z,44.00
2019-02-02T07:35:04.974Z,50.40
2019-02-02T07:39:06.186Z,46.35
2019-02-02T07:43:08.357Z,44.10
2019-02-02T07:47:09.503Z,41.05
2019-02-02T07:51:10.653Z,38.85
2019-02-02T07:55:14.390Z,36.73
2019-02-02T07:59:16.635Z,39.05
2019-02-02T08:03:17.918Z,38.38
2019-02-02T08:07:19.327Z,34.00
2019-02-02T08:11:20.645Z,31.97
2019-02-02T08:15:24.956Z,31.27
2019-02-02T08:19:26.487Z,32.67
2019-02-02T08:23:27.856Z,32.03
2019-02-02T08:27:29.179Z,34.05
2019-02-02T08:31:30.834Z,39.08
2019-02-02T08:35:33.136Z,38.53
2019-02-02T08:39:34.385Z,50.55
2019-02-02T08:43:35.749Z,58.15
2019-02-02T08:47:37.090Z,57.40
2019-02-02T08:51:38.290Z,57.90
2019-02-02T08:55:39.545Z,58.92
2019-02-02T08:59:40.797Z,59.27
2019-02-02T09:03:42.021Z,56.85
2019-02-02T09:07:43.263Z,60.00
2019-02-02T09:11:44.979Z,42.35
2019-02-02T09:15:46.741Z,43.68
2019-02-02T09:19:48.258Z,49.40
2019-02-02T09:23:49.431Z,39.20
2019-02-02T09:27:50.764Z,26.40
2019-02-02T09:31:52.552Z,30.23
2019-02-02T09:35:54.071Z,29.92
2019-02-02T09:39:55.503Z,27.42
2019-02-02T09:43:56.966Z,25.00
2019-02-02T09:47:58.532Z,22.42
2019-02-02T09:51:59.924Z,18.77
2019-02-02T09:56:01.198Z,17.37
2019-02-02T10:00:06.165Z,16.10
2019-02-02T10:04:07.547Z,14.55
2019-02-02T10:08:08.817Z,14.83
2019-02-02T10:12:10.579Z,15.30
2019-02-02T10:16:11.784Z,15.93
2019-02-02T10:20:15.580Z,16.93
2019-02-02T10:24:16.791Z,17.35
2019-02-02T10:28:17.953Z,16.27
2019-02-02T10:32:19.097Z,15.93
2019-02-02T10:36:20.358Z,17.30
2019-02-02T10:40:22.178Z,17.57
2019-02-02T10:44:24.454Z,16.60
2019-02-02T10:48:26.196Z,19.10
2019-02-02T10:52:27.527Z,20.40
2019-02-02T10:56:28.905Z,20.48
2019-02-02T11:00:36.055Z,20.30
2019-02-02T11:04:37.438Z,19.57
2019-02-02T11:08:38.889Z,19.87
2019-02-02T11:12:40.631Z,20.25
2019-02-02T11:16:42.090Z,22.35
2019-02-02T11:20:43.954Z,21.65
2019-02-02T11:24:45.344Z,19.70
2019-02-02T11:28:47.183Z,18.42
2019-02-02T11:32:48.724Z,19.45
2019-02-02T11:36:49.865Z,18.15
2019-02-02T11:40:51.076Z,16.07
2019-02-02T11:44:52.333Z,17.17
2019-02-02T11:48:53.591Z,16.23
2019-02-02T11:52:54.863Z,16.02
2019-02-02T11:56:56.311Z,16.40
2019-02-02T12:00:57.577Z,15.58
2019-02-02T12:04:59.018Z,15.95
2019-02-02T12:09:00.630Z,13.88
2019-02-02T12:13:01.929Z,13.68
2019-02-02T12:17:03.402Z,13.45
2019-02-02T12:21:04.788Z,14.05
2019-02-02T12:25:06.464Z,12.63
2019-02-02T12:29:07.867Z,13.38
2019-02-02T12:33:09.224Z,16.27
2019-02-02T12:37:10.612Z,12.88
2019-02-02T12:41:11.892Z,12.23
2019-02-02T12:45:19.060Z,10.05
2019-02-02T12:49:20.456Z,11.45
2019-02-02T12:53:21.709Z,10.95
2019-02-02T12:57:23.206Z,10.23
2019-02-02T13:01:24.583Z,10.32
2019-02-02T13:05:25.962Z,10.10
2019-02-02T13:09:27.380Z,10.65
2019-02-02T13:13:28.535Z,11.28
2019-02-02T13:17:30.177Z,11.50
2019-02-02T13:21:31.384Z,10.82
2019-02-02T13:25:32.955Z,10.72
2019-02-02T13:29:34.925Z,11.63
2019-02-02T13:33:36.166Z,13.13
2019-02-02T13:37:37.641Z,10.78
2019-02-02T13:41:39.498Z,7.95
2019-02-02T13:45:41.245Z,8.53
2019-02-02T13:49:42.707Z,7.17
2019-02-02T13:53:44.203Z,7.53
2019-02-02T13:57:47.304Z,10.60
2019-02-02T14:01:48.579Z,20.65
2019-02-02T14:05:50.004Z,13.80
2019-02-02T14:09:51.249Z,17.70
2019-02-02T14:13:52.647Z,12.13
2019-02-02T14:17:53.878Z,12.20
2019-02-02T14:21:55.136Z,10.55
2019-02-02T14:25:56.532Z,13.03
2019-02-02T14:29:57.807Z,12.47
2019-02-02T14:33:59.115Z,12.82
2019-02-02T14:38:00.702Z,12.70
2019-02-02T14:42:01.879Z,12.35
2019-02-02T14:46:03.359Z,12.55
2019-02-02T14:50:10.593Z,11.55
2019-02-02T14:54:12.180Z,11.73
2019-02-02T14:58:13.858Z,10.20
2019-02-02T15:02:15.251Z,10.68
2019-02-02T15:06:16.510Z,9.10
2019-02-02T15:10:18.887Z,9.63
2019-02-02T15:14:20.294Z,9.88
2019-02-02T15:18:21.499Z,8.70
2019-02-02T15:22:22.841Z,8.40
2019-02-02T15:26:25.537Z,8.68
2019-02-02T15:30:29.272Z,9.13
2019-02-02T15:34:30.608Z,9.98
2019-02-02T15:38:31.853Z,11.12
2019-02-02T15:42:33.553Z,10.08
2019-02-02T15:46:34.893Z,10.58
2019-02-02T15:50:36.155Z,11.60
2019-02-02T15:54:37.305Z,12.20
2019-02-02T15:58:39.112Z,12.78
2019-02-02T16:02:40.587Z,14.63
2019-02-02T16:06:41.876Z,14.00
2019-02-02T16:10:43.241Z,14.73
2019-02-02T16:14:44.345Z,15.80
2019-02-02T16:18:45.849Z,16.35
2019-02-02T16:22:48.031Z,15.75
2019-02-02T16:26:49.468Z,16.40
2019-02-02T16:30:50.626Z,17.07
2019-02-02T16:34:52.110Z,16.93
2019-02-02T16:38:53.430Z,18.27
2019-02-02T16:42:54.967Z,17.77
2019-02-02T16:46:56.251Z,18.00
2019-02-02T16:50:57.508Z,18.05
2019-02-02T16:55:04.608Z,19.70
2019-02-02T16:59:10.615Z,19.98
2019-02-02T17:03:11.901Z,20.40
2019-02-02T17:07:13.149Z,20.85
2019-02-02T17:11:14.706Z,20.90
2019-02-02T17:15:17.045Z,19.90
2019-02-02T17:19:18.655Z,21.65
2019-02-02T17:23:20.180Z,20.45
2019-02-02T17:27:21.348Z,19.00
2019-02-02T17:31:24.570Z,21.33
2019-02-02T17:35:26.181Z,20.55
2019-02-02T17:39:27.605Z,22.10
2019-02-02T17:43:28.979Z,20.75
2019-02-02T17:47:30.246Z,21.33
2019-02-02T17:51:31.404Z,21.70
2019-02-02T17:55:32.816Z,22.65
2019-02-02T17:59:34.117Z,21.02
2019-02-02T18:03:35.248Z,21.73
2019-02-02T18:07:36.538Z,22.13
2019-02-02T18:11:39.343Z,21.55
2019-02-02T18:15:40.641Z,20.95
2019-02-02T18:19:42.030Z,21.42
2019-02-02T18:23:43.383Z,21.27
2019-02-02T18:27:45.058Z,22.52
2019-02-02T18:31:46.311Z,23.12
2019-02-02T18:35:47.588Z,21.95
2019-02-02T18:39:48.752Z,23.32
2019-02-02T18:43:50.102Z,22.22
2019-02-02T18:47:51.364Z,23.30
2019-02-02T18:51:53.316Z,23.18
2019-02-02T18:55:56.714Z,23.07
2019-02-02T18:59:58.273Z,22.48
2019-02-02T19:03:59.686Z,27.32
2019-02-02T19:08:01.064Z,25.23
2019-02-02T19:12:02.439Z,25.25
2019-02-02T19:16:03.944Z,23.98
2019-02-02T19:20:14.738Z,30.75
2019-02-02T19:24:16.257Z,34.23
2019-02-02T19:28:17.481Z,32.65
2019-02-02T19:32:19.083Z,28.92
2019-02-02T19:36:20.211Z,26.12
2019-02-02T19:40:21.468Z,25.35
2019-02-02T19:44:22.855Z,26.85
2019-02-02T19:48:24.410Z,25.95
2019-02-02T19:52:25.797Z,24.20
2019-02-02T19:56:27.060Z,26.62
2019-02-02T20:00:30.640Z,27.32
2019-02-02T20:04:32.081Z,26.05
2019-02-02T20:08:33.467Z,24.70
2019-02-02T20:12:34.717Z,25.02
2019-02-02T20:16:35.992Z,23.47
2019-02-02T20:20:37.725Z,25.95
2019-02-02T20:24:40.260Z,25.70
2019-02-02T20:28:41.549Z,27.15
2019-02-02T20:32:44.061Z,24.67
2019-02-02T20:36:45.851Z,25.97
2019-02-02T20:40:47.292Z,28.95
2019-02-02T20:44:48.810Z,28.50
2019-02-02T20:48:50.433Z,28.07
2019-02-02T20:52:52.116Z,27.10
2019-02-02T20:56:53.210Z,28.27
2019-02-02T21:00:54.487Z,31.87
2019-02-02T21:04:55.832Z,29.77
2019-02-02T21:08:59.090Z,28.25
2019-02-02T21:13:00.707Z,30.15
2019-02-02T21:17:01.953Z,27.98
2019-02-02T21:21:03.651Z,29.35
2019-02-02T21:25:07.741Z,28.32
2019-02-02T21:29:09.426Z,30.05
2019-02-02T21:33:11.116Z,29.77
2019-02-02T21:37:12.502Z,27.87
2019-02-02T21:41:13.946Z,30.50
2019-02-02T21:45:15.559Z,28.10
2019-02-02T21:49:16.974Z,27.90
2019-02-02T21:53:18.851Z,29.72
2019-02-02T21:57:20.240Z,29.67
2019-02-02T22:01:24.625Z,28.77
2019-02-02T22:05:26.139Z,28.55
2019-02-02T22:09:27.462Z,29.27
2019-02-02T22:13:28.742Z,32.40
2019-02-02T22:17:30.148Z,29.15
2019-02-02T22:21:31.419Z,30.40
2019-02-02T22:25:32.656Z,28.32
2019-02-02T22:29:34.011Z,28.20
2019-02-02T22:33:35.327Z,29.37
2019-02-02T22:37:36.456Z,32.30
2019-02-02T22:41:37.938Z,31.77
2019-02-02T22:45:39.144Z,29.42
2019-02-02T22:49:40.503Z,28.95
2019-02-02T22:53:41.883Z,29.80
2019-02-02T22:57:43.385Z,28.17
2019-02-02T23:01:44.660Z,28.45
2019-02-02T23:06:02.197Z,27.67
2019-02-02T23:10:19.237Z,28.27
2019-02-02T23:14:42.465Z,30.50
2019-02-02T23:18:46.797Z,27.98
2019-02-02T23:22:47.119Z,29.20
2019-02-02T23:26:48.251Z,30.23
2019-02-02T23:30:49.467Z,28.67
2019-02-02T23:34:50.933Z,29.60
2019-02-02T23:38:52.279Z,29.32
2019-02-02T23:42:53.444Z,28.98
2019-02-02T23:46:55.316Z,29.75
2019-02-02T23:50:56.590Z,29.70
2019-02-02T23:54:58.101Z,30.88
2019-02-02T23:58:59.477Z,29.80
